createdAt,value
2023-03-22T00:01:58.708Z,10.02
2023-03-22T00:04:26.329Z,9.50
2023-03-22T00:06:53.282Z,8.30
2023-03-22T00:09:19.891Z,7.28
2023-03-22T00:11:50.726Z,7.22
2023-03-22T00:14:19.662Z,6.50
2023-03-22T00:16:46.320Z,6.28
2023-03-22T00:19:16.454Z,6.32
2023-03-22T00:21:42.903Z,6.05
2023-03-22T00:24:09.334Z,6.15
2023-03-22T00:26:35.737Z,6.13
2023-03-22T00:29:02.123Z,5.68
2023-03-22T00:31:28.601Z,6.32
2023-03-22T00:33:55.578Z,5.65
2023-03-22T00:36:22.038Z,5.20
2023-03-22T00:38:48.425Z,5.05
2023-03-22T00:41:17.297Z,6.03
2023-03-22T00:43:43.905Z,5.82
2023-03-22T00:46:11.438Z,6.45
2023-03-22T00:48:39.382Z,5.00
2023-03-22T00:51:06.102Z,5.78
2023-03-22T00:53:36.516Z,6.28
2023-03-22T00:56:06.582Z,6.55
2023-03-22T00:58:33.189Z,5.43
2023-03-22T01:00:59.761Z,5.72
2023-03-22T01:03:26.331Z,4.88
2023-03-22T01:05:56.687Z,6.93
2023-03-22T01:08:23.919Z,8.57
2023-03-22T01:10:50.680Z,5.13
2023-03-22T01:13:18.048Z,4.95
2023-03-22T01:15:44.864Z,5.10
2023-03-22T01:18:11.369Z,5.28
2023-03-22T01:20:38.257Z,4.88
2023-03-22T01:23:04.850Z,5.80
2023-03-22T01:25:31.489Z,5.72
2023-03-22T01:27:58.004Z,4.32
2023-03-22T01:30:24.610Z,5.60
2023-03-22T01:32:51.291Z,5.28
2023-03-22T01:35:17.756Z,5.55
2023-03-22T01:37:44.333Z,5.82
2023-03-22T01:40:12.508Z,4.80
2023-03-22T01:42:38.951Z,5.22
2023-03-22T01:45:15.018Z,4.50
2023-03-22T01:47:52.430Z,4.70
2023-03-22T01:50:19.593Z,4.68
2023-03-22T01:52:46.104Z,4.97
2023-03-22T01:55:13.018Z,4.85
2023-03-22T01:57:42.072Z,4.70
2023-03-22T02:00:13.868Z,6.57
2023-03-22T02:02:40.555Z,5.55
2023-03-22T02:05:07.186Z,4.90
2023-03-22T02:07:33.594Z,6.75
2023-03-22T02:10:02.055Z,6.80
2023-03-22T02:12:37.451Z,5.63
2023-03-22T02:15:22.129Z,6.15
2023-03-22T02:17:59.766Z,5.25
2023-03-22T02:20:45.164Z,5.75
2023-03-22T02:23:21.022Z,5.40
2023-03-22T02:26:25.948Z,6.05
2023-03-22T02:29:16.333Z,5.32
2023-03-22T02:32:21.820Z,6.88
2023-03-22T02:34:57.466Z,5.97
2023-03-22T02:37:34.999Z,4.85
2023-03-22T02:40:10.701Z,4.78
2023-03-22T02:43:05.226Z,4.85
2023-03-22T02:45:36.859Z,5.10
2023-03-22T02:48:12.978Z,5.15
2023-03-22T02:50:51.457Z,5.20
2023-03-22T02:53:35.472Z,5.15
2023-03-22T02:56:13.478Z,4.70
2023-03-22T02:58:46.930Z,4.53
2023-03-22T03:01:18.469Z,4.90
2023-03-22T03:03:48.147Z,4.57
2023-03-22T03:06:18.767Z,5.45
2023-03-22T03:08:46.777Z,4.30
2023-03-22T03:11:13.543Z,5.63
2023-03-22T03:13:40.024Z,5.05
2023-03-22T03:16:07.718Z,4.88
2023-03-22T03:19:00.224Z,4.90
2023-03-22T03:21:45.280Z,5.22
2023-03-22T03:24:20.212Z,5.30
2023-03-22T03:27:02.254Z,6.22
2023-03-22T03:29:47.298Z,5.82
2023-03-22T03:32:19.380Z,5.78
2023-03-22T03:34:57.806Z,6.00
2023-03-22T03:37:28.645Z,5.35
2023-03-22T03:40:09.517Z,9.23
2023-03-22T03:42:38.299Z,5.75
2023-03-22T03:45:06.227Z,5.85
2023-03-22T03:47:34.491Z,5.90
2023-03-22T03:50:00.896Z,5.65
2023-03-22T03:52:27.475Z,5.95
2023-03-22T03:54:55.096Z,6.30
2023-03-22T03:57:22.078Z,6.38
2023-03-22T03:59:48.521Z,5.47
2023-03-22T04:02:16.626Z,6.00
2023-03-22T04:04:43.160Z,6.35
2023-03-22T04:07:09.577Z,6.57
2023-03-22T04:09:37.965Z,5.50
2023-03-22T04:12:04.609Z,5.55
2023-03-22T04:14:31.134Z,5.43
2023-03-22T04:16:57.707Z,5.68
2023-03-22T04:19:24.179Z,7.00
2023-03-22T04:21:53.070Z,5.63
2023-03-22T04:24:21.525Z,4.97
2023-03-22T04:26:47.938Z,5.32
2023-03-22T04:29:14.471Z,5.78
2023-03-22T04:31:40.903Z,5.32
2023-03-22T04:34:07.390Z,5.68
2023-03-22T04:36:39.399Z,6.13
2023-03-22T04:39:08.774Z,5.55
2023-03-22T04:41:35.919Z,6.72
2023-03-22T04:44:02.988Z,5.72
2023-03-22T04:46:34.760Z,6.15
2023-03-22T04:49:01.541Z,7.70
2023-03-22T04:51:28.390Z,6.10
2023-03-22T04:53:54.830Z,7.43
2023-03-22T04:56:21.806Z,6.82
2023-03-22T04:58:48.243Z,6.70
2023-03-22T05:01:15.946Z,6.57
2023-03-22T05:03:51.523Z,6.65
2023-03-22T05:06:18.116Z,6.03
2023-03-22T05:08:44.586Z,5.97
2023-03-22T05:11:14.267Z,8.18
2023-03-22T05:13:40.784Z,6.82
2023-03-22T05:16:08.525Z,6.85
2023-03-22T05:18:37.957Z,6.60
2023-03-22T05:21:06.790Z,7.82
2023-03-22T05:23:33.269Z,8.27
2023-03-22T05:26:01.610Z,8.95
2023-03-22T05:28:28.518Z,8.65
2023-03-22T05:30:57.101Z,8.25
2023-03-22T05:33:23.740Z,9.32
2023-03-22T05:35:51.143Z,8.50
2023-03-22T05:38:17.869Z,8.13
2023-03-22T05:40:44.838Z,8.50
2023-03-22T05:43:11.298Z,8.05
2023-03-22T05:45:37.880Z,7.88
2023-03-22T05:48:04.398Z,8.43
2023-03-22T05:50:30.893Z,8.50
2023-03-22T05:52:57.760Z,7.43
2023-03-22T05:55:24.437Z,7.78
2023-03-22T05:57:51.425Z,9.23
2023-03-22T06:00:18.636Z,7.88
2023-03-22T06:02:47.731Z,8.10
2023-03-22T06:05:15.846Z,7.57
2023-03-22T06:07:43.014Z,8.07
2023-03-22T06:10:12.798Z,8.77
2023-03-22T06:12:39.345Z,8.18
2023-03-22T06:15:06.394Z,7.28
2023-03-22T06:17:32.943Z,7.68
2023-03-22T06:19:59.608Z,7.43
2023-03-22T06:22:26.288Z,7.35
2023-03-22T06:24:52.685Z,8.13
2023-03-22T06:27:19.144Z,7.93
2023-03-22T06:29:50.605Z,7.43
2023-03-22T06:32:17.024Z,8.73
2023-03-22T06:34:43.996Z,8.88
2023-03-22T06:37:10.377Z,8.90
2023-03-22T06:39:36.914Z,8.20
2023-03-22T06:42:03.408Z,7.75
2023-03-22T06:44:29.847Z,7.55
2023-03-22T06:46:56.305Z,8.10
2023-03-22T06:49:22.778Z,9.90
2023-03-22T06:51:49.182Z,8.48
2023-03-22T06:54:16.718Z,8.77
2023-03-22T06:56:43.170Z,8.55
2023-03-22T06:59:09.613Z,8.18
2023-03-22T07:01:36.348Z,7.25
2023-03-22T07:04:02.920Z,7.00
2023-03-22T07:06:30.847Z,11.73
2023-03-22T07:08:57.275Z,8.25
2023-03-22T07:11:25.807Z,7.07
2023-03-22T07:13:55.362Z,7.13
2023-03-22T07:16:22.382Z,6.93
2023-03-22T07:18:49.019Z,6.88
2023-03-22T07:21:15.662Z,6.70
2023-03-22T07:23:42.219Z,7.35
2023-03-22T07:26:08.723Z,5.57
2023-03-22T07:28:35.425Z,5.85
2023-03-22T07:31:03.768Z,5.68
2023-03-22T07:33:30.482Z,6.78
2023-03-22T07:35:56.960Z,6.28
2023-03-22T07:38:23.562Z,5.57
2023-03-22T07:40:54.636Z,6.07
2023-03-22T07:43:21.623Z,5.30
2023-03-22T07:45:52.105Z,6.68
2023-03-22T07:48:21.829Z,6.47
2023-03-22T07:50:49.077Z,6.80
2023-03-22T07:53:15.541Z,4.90
2023-03-22T07:55:45.182Z,4.65
2023-03-22T07:58:11.614Z,5.15
2023-03-22T08:00:38.529Z,4.55
2023-03-22T08:03:05.780Z,4.60
2023-03-22T08:05:32.360Z,4.75
2023-03-22T08:07:58.785Z,5.70
2023-03-22T08:10:25.582Z,4.00
2023-03-22T08:12:51.977Z,4.43
2023-03-22T08:15:18.504Z,4.22
2023-03-22T08:17:44.931Z,3.45
2023-03-22T08:20:12.834Z,3.22
2023-03-22T08:22:39.455Z,3.30
2023-03-22T08:25:06.361Z,3.70
2023-03-22T08:27:32.829Z,4.90
2023-03-22T08:29:59.290Z,5.15
2023-03-22T08:32:25.850Z,4.07
2023-03-22T08:34:52.711Z,3.75
2023-03-22T08:37:22.137Z,4.38
2023-03-22T08:39:48.638Z,3.50
2023-03-22T08:42:15.391Z,3.40
2023-03-22T08:44:41.976Z,3.42
2023-03-22T08:47:08.422Z,3.60
2023-03-22T08:49:34.944Z,3.17
2023-03-22T08:52:01.405Z,2.90
2023-03-22T08:54:33.313Z,4.47
2023-03-22T08:56:59.744Z,3.15
2023-03-22T08:59:26.206Z,3.28
2023-03-22T09:01:52.745Z,2.95
2023-03-22T09:04:19.408Z,4.47
2023-03-22T09:06:46.987Z,3.35
2023-03-22T09:09:13.648Z,3.17
2023-03-22T09:11:42.414Z,3.13
2023-03-22T09:14:09.624Z,3.67
2023-03-22T09:16:36.256Z,2.75
2023-03-22T09:19:03.228Z,4.25
2023-03-22T09:21:32.423Z,2.78
2023-03-22T09:23:58.906Z,2.60
2023-03-22T09:26:25.607Z,2.45
2023-03-22T09:28:52.193Z,2.70
2023-03-22T09:31:20.557Z,2.83
2023-03-22T09:33:47.325Z,2.60
2023-03-22T09:36:13.960Z,2.20
2023-03-22T09:38:41.290Z,2.40
2023-03-22T09:41:13.747Z,1.80
2023-03-22T09:43:43.948Z,1.85
2023-03-22T09:46:15.055Z,2.65
2023-03-22T09:48:43.410Z,1.70
2023-03-22T09:51:40.690Z,2.03
2023-03-22T09:54:21.428Z,1.70
2023-03-22T09:56:53.466Z,1.92
2023-03-22T09:59:44.394Z,2.20
2023-03-22T10:02:35.880Z,1.40
2023-03-22T10:05:13.440Z,1.80
2023-03-22T10:08:01.784Z,1.80
2023-03-22T10:10:28.453Z,1.65
2023-03-22T10:13:07.712Z,1.77
2023-03-22T10:15:46.223Z,1.60
2023-03-22T10:19:00.914Z,1.83
2023-03-22T10:21:27.366Z,2.10
2023-03-22T10:24:15.283Z,1.30
2023-03-22T10:26:45.368Z,1.60
2023-03-22T10:29:21.035Z,1.50
2023-03-22T10:31:47.556Z,2.05
2023-03-22T10:34:29.300Z,1.92
2023-03-22T10:36:55.906Z,3.78
2023-03-22T10:39:25.252Z,3.30
2023-03-22T10:41:55.389Z,1.63
2023-03-22T10:44:23.817Z,1.77
2023-03-22T10:46:51.432Z,1.40
2023-03-22T10:49:28.629Z,1.50
2023-03-22T10:51:59.835Z,2.10
2023-03-22T10:54:26.650Z,1.77
2023-03-22T10:56:53.094Z,1.23
2023-03-22T10:59:45.690Z,1.35
2023-03-22T11:02:21.798Z,2.03
2023-03-22T11:04:53.924Z,1.35
2023-03-22T11:07:43.834Z,2.22
2023-03-22T11:10:10.153Z,1.20
2023-03-22T11:12:40.140Z,2.97
2023-03-22T11:15:11.075Z,1.25
2023-03-22T11:17:37.623Z,1.10
2023-03-22T11:20:09.754Z,1.77
2023-03-22T11:22:41.385Z,1.15
2023-03-22T11:25:21.378Z,1.40
2023-03-22T11:27:53.225Z,1.00
2023-03-22T11:30:20.236Z,1.00
2023-03-22T11:32:47.252Z,1.05
2023-03-22T11:35:15.016Z,1.52
2023-03-22T11:37:47.814Z,1.27
2023-03-22T11:40:23.779Z,1.30
2023-03-22T11:42:53.653Z,1.45
2023-03-22T11:45:31.686Z,1.13
2023-03-22T11:48:13.225Z,1.23
2023-03-22T11:50:40.758Z,1.45
2023-03-22T11:53:11.539Z,1.33
2023-03-22T11:55:38.344Z,1.10
2023-03-22T11:58:06.433Z,1.00
2023-03-22T12:00:37.521Z,1.30
2023-03-22T12:03:06.302Z,1.20
2023-03-22T12:05:34.390Z,1.67
2023-03-22T12:08:11.178Z,1.40
2023-03-22T12:10:47.234Z,2.00
2023-03-22T12:13:26.909Z,2.20
2023-03-22T12:15:56.796Z,1.42
2023-03-22T12:18:29.896Z,1.50
2023-03-22T12:21:01.049Z,1.30
2023-03-22T12:23:32.170Z,2.30
2023-03-22T12:26:02.690Z,1.65
2023-03-22T12:28:34.572Z,2.58
2023-03-22T12:31:03.658Z,1.63
2023-03-22T12:33:33.224Z,2.78
2023-03-22T12:36:02.694Z,2.05
2023-03-22T12:38:46.425Z,1.50
2023-03-22T12:41:17.406Z,1.30
2023-03-22T12:43:53.400Z,2.30
2023-03-22T12:46:23.882Z,2.40
2023-03-22T12:49:20.135Z,3.80
2023-03-22T12:51:49.643Z,1.80
2023-03-22T12:54:17.646Z,3.08
2023-03-22T12:56:47.137Z,3.08
2023-03-22T12:59:20.571Z,1.63
2023-03-22T13:02:01.399Z,1.73
2023-03-22T13:04:36.410Z,1.90
2023-03-22T13:07:27.317Z,1.90
2023-03-22T13:09:53.747Z,2.78
2023-03-22T13:12:20.281Z,1.40
2023-03-22T13:14:56.866Z,1.88
2023-03-22T13:17:23.189Z,1.58
2023-03-22T13:20:23.604Z,1.80
2023-03-22T13:22:49.947Z,2.10
2023-03-22T13:25:17.099Z,2.10
2023-03-22T13:27:50.050Z,1.50
2023-03-22T13:30:41.538Z,2.67
2023-03-22T13:33:11.129Z,1.40
2023-03-22T13:35:44.095Z,2.20
2023-03-22T13:38:21.154Z,1.00
2023-03-22T13:40:56.578Z,1.27
2023-03-22T13:43:25.949Z,1.15
2023-03-22T13:46:17.807Z,1.45
2023-03-22T13:48:47.261Z,1.83
2023-03-22T13:51:31.713Z,1.70
2023-03-22T13:54:14.004Z,1.92
2023-03-22T13:56:41.929Z,1.23
2023-03-22T13:59:22.679Z,1.70
2023-03-22T14:01:55.983Z,1.40
2023-03-22T14:04:30.570Z,0.80
2023-03-22T14:07:06.967Z,1.30
2023-03-22T14:09:44.085Z,1.58
2023-03-22T14:12:18.170Z,2.63
2023-03-22T14:14:48.439Z,1.60
2023-03-22T14:17:27.292Z,2.25
2023-03-22T14:19:55.087Z,1.60
